createdAt,value
2023-05-09T00:00:49.469Z,11.4
2023-05-09T00:05:49.504Z,11.4
2023-05-09T00:15:49.471Z,11.2
2023-05-09T00:20:49.481Z,11.3
2023-05-09T00:30:49.478Z,11.3
2023-05-09T00:40:49.498Z,11.4
2023-05-09T00:45:49.536Z,11.4
2023-05-09T00:50:49.492Z,11.4
2023-05-09T01:05:49.537Z,11.5
2023-05-09T01:15:49.523Z,11.4
2023-05-09T01:20:49.508Z,11.4
2023-05-09T01:30:49.515Z,11.4
2023-05-09T01:40:49.514Z,11.4
2023-05-09T01:50:49.516Z,11.4
2023-05-09T01:55:49.516Z,11.4
2023-05-09T02:05:49.505Z,11.4
2023-05-09T02:10:49.634Z,11.5
2023-05-09T02:20:49.546Z,11.5
2023-05-09T02:30:49.511Z,11.5
2023-05-09T02:35:49.527Z,11.5
2023-05-09T02:45:49.534Z,11.5
2023-05-09T02:50:49.513Z,11.5
2023-05-09T03:00:49.518Z,11.5
2023-05-09T03:10:49.513Z,11.5
2023-05-09T03:15:49.535Z,11.6
2023-05-09T03:25:49.523Z,11.4
2023-05-09T03:35:49.519Z,11.4
2023-05-09T03:45:49.524Z,11.4
2023-05-09T03:55:49.523Z,11.4
2023-05-09T04:00:49.518Z,11.4
2023-05-09T04:10:49.520Z,11.5
2023-05-09T04:20:49.529Z,11.4
2023-05-09T04:25:49.522Z,11.3
2023-05-09T04:35:49.526Z,11.4
2023-05-09T04:45:49.571Z,11.4
2023-05-09T04:55:49.574Z,11.4
2023-05-09T05:00:49.553Z,11.5
2023-05-09T05:10:49.541Z,11.5
2023-05-09T05:15:49.532Z,11.5
2023-05-09T05:25:49.553Z,11.5
2023-05-09T05:35:49.539Z,11.5
2023-05-09T05:40:49.541Z,11.5
2023-05-09T05:45:49.605Z,11.5
2023-05-09T05:55:49.546Z,11.4
2023-05-09T06:00:49.547Z,11.4
2023-05-09T06:15:49.543Z,11.6
2023-05-09T06:25:49.528Z,11.6
2023-05-09T06:30:49.548Z,11.5
2023-05-09T06:35:49.546Z,11.5
2023-05-09T06:45:49.579Z,11.5
2023-05-09T06:55:49.555Z,11.6
2023-05-09T07:05:49.549Z,11.9
2023-05-09T07:10:49.549Z,11.8
2023-05-09T07:25:49.555Z,11.4
2023-05-09T07:50:49.597Z,11.5
2023-05-09T07:55:49.563Z,11.8
2023-05-09T08:05:49.570Z,11.6
2023-05-09T08:10:49.583Z,11.5
2023-05-09T08:15:49.607Z,11.5
2023-05-09T08:25:49.582Z,11.5
2023-05-09T08:30:49.588Z,11.5
2023-05-09T08:40:49.606Z,11.7
2023-05-09T08:45:49.595Z,11.6
2023-05-09T08:50:49.594Z,11.6
2023-05-09T08:55:49.603Z,11.5
2023-05-09T09:15:49.600Z,11.5
2023-05-09T09:25:49.602Z,11.6
2023-05-09T09:35:49.620Z,11.6
2023-05-09T09:45:49.671Z,11.5
2023-05-09T10:00:49.678Z,11.5
2023-05-09T10:10:49.627Z,11.5
2023-05-09T10:20:49.613Z,11.7
2023-05-09T10:25:49.649Z,11.6
2023-05-09T10:30:49.635Z,11.6
2023-05-09T10:40:49.646Z,11.6
2023-05-09T11:00:49.642Z,11.6
2023-05-09T11:05:49.646Z,11.7
2023-05-09T11:25:49.667Z,11.6
2023-05-09T11:55:49.682Z,11.7
2023-05-09T12:05:49.669Z,11.6
2023-05-09T12:15:49.689Z,11.7
2023-05-09T12:20:49.701Z,11.7
2023-05-09T12:45:49.719Z,11.7
2023-05-09T12:50:49.669Z,11.7
2023-05-09T13:00:49.707Z,11.7
2023-05-09T13:05:49.684Z,11.7
2023-05-09T13:15:49.681Z,11.7
2023-05-09T13:25:49.683Z,11.7
2023-05-09T13:30:49.718Z,11.8
2023-05-09T13:40:49.665Z,11.7
2023-05-09T13:50:49.673Z,11.7
2023-05-09T13:55:49.685Z,11.6
2023-05-09T14:00:49.675Z,11.8
2023-05-09T14:05:49.680Z,11.8
2023-05-09T14:20:49.676Z,11.9
2023-05-09T14:25:49.685Z,11.8
2023-05-09T14:35:49.701Z,11.8
2023-05-09T14:40:49.698Z,11.7
2023-05-09T14:50:49.694Z,11.8
2023-05-09T14:55:49.692Z,11.8
2023-05-09T15:05:49.688Z,11.8
2023-05-09T15:25:49.684Z,11.7
2023-05-09T15:30:49.718Z,11.7
2023-05-09T15:35:49.692Z,11.7
2023-05-09T15:45:49.764Z,11.7
2023-05-09T15:55:49.692Z,11.7
2023-05-09T16:00:49.690Z,11.7
2023-05-09T16:05:49.749Z,11.8
2023-05-09T16:10:49.713Z,11.6
2023-05-09T16:20:49.749Z,11.6
2023-05-09T16:30:49.715Z,11.6
2023-05-09T16:35:49.724Z,11.6
2023-05-09T16:45:49.752Z,11.7
2023-05-09T17:00:49.715Z,11.6
2023-05-09T17:05:49.722Z,11.6
2023-05-09T17:15:49.704Z,11.6
2023-05-09T17:20:49.714Z,11.6
2023-05-09T17:25:49.744Z,11.6
2023-05-09T17:30:49.750Z,11.7
2023-05-09T17:40:49.740Z,11.6
2023-05-09T17:45:49.763Z,11.6
2023-05-09T17:50:49.743Z,11.6
2023-05-09T18:00:49.739Z,11.6
2023-05-09T18:05:49.745Z,11.6
2023-05-09T18:15:49.800Z,11.8
2023-05-09T18:20:49.763Z,11.9
2023-05-09T18:25:49.749Z,11.9
2023-05-09T18:30:49.903Z,11.7
2023-05-09T18:35:49.761Z,11.7
2023-05-09T18:40:49.755Z,11.6
2023-05-09T18:55:49.775Z,11.6
2023-05-09T19:05:49.774Z,11.9
2023-05-09T19:10:49.759Z,12
2023-05-09T19:20:49.759Z,11.8
2023-05-09T19:25:49.767Z,11.7
2023-05-09T19:40:49.770Z,11.7
2023-05-09T19:45:49.800Z,11.7
2023-05-09T19:55:49.929Z,12.1
2023-05-09T20:05:49.787Z,11.9
2023-05-09T20:15:49.779Z,11.8
2023-05-09T20:20:49.776Z,11.7
2023-05-09T20:25:49.775Z,11.8
2023-05-09T20:35:49.768Z,11.7
2023-05-09T20:45:49.800Z,11.7
2023-05-09T20:50:49.857Z,11.6
2023-05-09T21:00:49.792Z,11.6
2023-05-09T21:05:49.775Z,11.6
2023-05-09T21:10:49.774Z,11.6
2023-05-09T21:15:49.793Z,11.6
2023-05-09T21:20:49.789Z,11.6
2023-05-09T21:30:49.790Z,11.6
2023-05-09T21:35:49.793Z,11.6
2023-05-09T21:45:49.765Z,11.5
2023-05-09T21:50:49.774Z,11.5
2023-05-09T22:00:49.768Z,11.5
2023-05-09T22:15:49.798Z,11.6
2023-05-09T22:25:49.816Z,11.5
2023-05-09T22:35:49.796Z,11.5
2023-05-09T22:45:49.792Z,11.5
2023-05-09T22:50:49.789Z,11.5
2023-05-09T22:55:49.793Z,11.5
2023-05-09T23:00:49.940Z,11.5
2023-05-09T23:10:49.819Z,11.4
2023-05-09T23:15:49.836Z,11.5
2023-05-09T23:25:49.801Z,11.6
2023-05-09T23:35:49.815Z,11.5
2023-05-09T23:40:49.828Z,11.5
2023-05-09T23:50:49.802Z,11.4
